createdAt,value
2023-05-08T00:00:45.587Z,22.89
2023-05-08T00:01:45.627Z,22.91
2023-05-08T00:02:44.753Z,22.86
2023-05-08T00:03:44.883Z,22.88
2023-05-08T00:04:45.773Z,22.91
2023-05-08T00:05:44.945Z,22.88
2023-05-08T00:06:45.802Z,22.85
2023-05-08T00:07:44.986Z,22.85
2023-05-08T00:08:45.876Z,22.89
2023-05-08T00:09:45.975Z,22.86
2023-05-08T00:10:45.960Z,22.85
2023-05-08T00:11:45.997Z,22.86
2023-05-08T00:12:45.081Z,22.88
2023-05-08T00:13:46.092Z,22.85
2023-05-08T00:14:46.165Z,22.85
2023-05-08T00:15:45.215Z,22.85
2023-05-08T00:16:46.311Z,22.86
2023-05-08T00:17:46.304Z,22.88
2023-05-08T00:18:46.366Z,22.83
2023-05-08T00:19:45.359Z,22.86
2023-05-08T00:20:46.425Z,22.85
2023-05-08T00:21:46.449Z,22.86
2023-05-08T00:22:46.492Z,22.86
2023-05-08T00:23:46.547Z,22.86
2023-05-08T00:24:46.655Z,22.85
2023-05-08T00:25:46.693Z,22.88
2023-05-08T00:26:46.696Z,22.85
2023-05-08T00:27:46.754Z,22.85
2023-05-08T00:28:46.796Z,22.85
2023-05-08T00:29:46.857Z,22.83
2023-05-08T00:30:46.920Z,22.83
2023-05-08T00:31:47.014Z,22.80
2023-05-08T00:32:46.069Z,22.86
2023-05-08T00:33:46.063Z,22.82
2023-05-08T00:34:46.102Z,22.82
2023-05-08T00:35:46.166Z,22.85
2023-05-08T00:36:46.235Z,22.83
2023-05-08T00:37:46.255Z,22.82
2023-05-08T00:38:47.304Z,22.82
2023-05-08T00:39:47.383Z,22.82
2023-05-08T00:40:47.418Z,22.83
2023-05-08T00:41:47.560Z,22.83
2023-05-08T00:42:47.535Z,22.86
2023-05-08T00:43:46.587Z,22.82
2023-05-08T00:44:47.638Z,22.82
2023-05-08T00:45:47.742Z,22.82
2023-05-08T00:46:47.808Z,22.80
2023-05-08T00:47:47.918Z,22.83
2023-05-08T00:48:47.838Z,22.85
2023-05-08T00:49:47.911Z,22.82
2023-05-08T00:50:46.957Z,22.80
2023-05-08T00:51:48.100Z,22.80
2023-05-08T00:52:47.087Z,22.82
2023-05-08T00:53:48.144Z,22.82
2023-05-08T00:54:47.193Z,22.85
2023-05-08T00:55:48.205Z,22.85
2023-05-08T00:56:48.269Z,22.86
2023-05-08T00:57:47.345Z,22.88
2023-05-08T00:58:48.344Z,22.82
2023-05-08T00:59:48.516Z,22.80
2023-05-08T01:00:48.470Z,22.82
2023-05-08T01:01:48.552Z,22.83
2023-05-08T01:02:48.708Z,22.82
2023-05-08T01:03:48.774Z,22.80
2023-05-08T01:04:48.660Z,22.82
2023-05-08T01:05:47.696Z,22.80
2023-05-08T01:06:48.779Z,22.79
2023-05-08T01:07:49.789Z,22.83
2023-05-08T01:08:48.881Z,22.80
2023-05-08T01:09:47.926Z,22.82
2023-05-08T01:10:49.023Z,22.86
2023-05-08T01:11:49.025Z,22.80
2023-05-08T01:12:49.136Z,22.82
2023-05-08T01:13:49.155Z,22.83
2023-05-08T01:14:49.203Z,22.80
2023-05-08T01:15:49.308Z,22.82
2023-05-08T01:16:49.344Z,22.78
2023-05-08T01:17:49.484Z,22.80
2023-05-08T01:18:48.463Z,22.82
2023-05-08T01:19:49.500Z,22.82
2023-05-08T01:20:48.553Z,22.82
2023-05-08T01:21:48.597Z,22.79
2023-05-08T01:22:49.631Z,22.79
2023-05-08T01:23:48.701Z,22.80
2023-05-08T01:24:48.739Z,22.83
2023-05-08T01:25:49.788Z,22.82
2023-05-08T01:26:49.849Z,22.80
2023-05-08T01:27:49.881Z,22.78
2023-05-08T01:28:49.953Z,22.85
2023-05-08T01:29:49.972Z,22.82
2023-05-08T01:30:50.012Z,22.80
2023-05-08T01:31:50.062Z,22.79
2023-05-08T01:32:49.146Z,22.82
2023-05-08T01:33:50.207Z,22.83
2023-05-08T01:34:49.214Z,22.80
2023-05-08T01:35:50.251Z,22.82
2023-05-08T01:36:49.303Z,22.78
2023-05-08T01:37:49.331Z,22.79
2023-05-08T01:38:49.375Z,22.78
2023-05-08T01:39:49.487Z,22.82
2023-05-08T01:40:49.472Z,22.80
2023-05-08T01:41:49.553Z,22.82
2023-05-08T01:42:50.599Z,22.79
2023-05-08T01:43:50.629Z,22.78
2023-05-08T01:44:50.703Z,22.82
2023-05-08T01:45:50.702Z,22.83
2023-05-08T01:46:50.832Z,22.80
2023-05-08T01:47:50.855Z,22.80
2023-05-08T01:48:50.856Z,22.79
2023-05-08T01:49:51.105Z,22.82
2023-05-08T01:50:50.965Z,22.78
2023-05-08T01:51:49.989Z,22.80
2023-05-08T01:52:50.045Z,22.78
2023-05-08T01:53:51.088Z,22.82
2023-05-08T01:54:50.129Z,22.80
2023-05-08T01:55:51.221Z,22.80
2023-05-08T01:56:51.225Z,22.79
2023-05-08T01:57:51.290Z,22.79
2023-05-08T01:58:50.349Z,22.80
2023-05-08T01:59:51.389Z,22.78
2023-05-08T02:00:51.510Z,22.78
2023-05-08T02:01:50.531Z,22.80
2023-05-08T02:02:51.673Z,22.76
2023-05-08T02:03:51.644Z,22.80
2023-05-08T02:04:50.672Z,22.79
2023-05-08T02:05:50.733Z,22.76
2023-05-08T02:06:50.788Z,22.79
2023-05-08T02:07:51.840Z,22.75
2023-05-08T02:08:50.891Z,22.80
2023-05-08T02:09:51.582Z,22.80
2023-05-08T02:10:52.005Z,22.76
2023-05-08T02:11:52.057Z,22.78
2023-05-08T02:12:52.165Z,22.79
2023-05-08T02:13:52.168Z,22.79
2023-05-08T02:14:51.240Z,22.82
2023-05-08T02:15:52.320Z,22.78
2023-05-08T02:16:52.456Z,22.79
2023-05-08T02:17:52.479Z,22.80
2023-05-08T02:18:51.479Z,22.80
2023-05-08T02:19:52.503Z,22.80
2023-05-08T02:20:51.575Z,22.79
2023-05-08T02:21:52.607Z,22.80
2023-05-08T02:22:51.680Z,22.78
2023-05-08T02:23:52.709Z,22.80
2023-05-08T02:24:51.760Z,22.80
2023-05-08T02:25:52.843Z,22.80
2023-05-08T02:26:52.880Z,22.78
2023-05-08T02:27:52.949Z,22.76
2023-05-08T02:28:53.000Z,22.78
2023-05-08T02:29:53.046Z,22.78
2023-05-08T02:30:52.105Z,22.78
2023-05-08T02:31:53.212Z,22.76
2023-05-08T02:32:53.357Z,22.76
2023-05-08T02:33:53.264Z,22.79
2023-05-08T02:35:02.617Z,22.78
2023-05-08T02:35:53.315Z,22.78
2023-05-08T02:36:52.314Z,22.79
2023-05-08T02:37:53.319Z,22.76
2023-05-08T02:38:53.302Z,22.76
2023-05-08T02:39:53.302Z,22.76
2023-05-08T02:40:53.296Z,22.79
2023-05-08T02:41:53.339Z,22.75
2023-05-08T02:42:52.281Z,22.78
2023-05-08T02:43:53.267Z,22.75
2023-05-08T02:44:53.269Z,22.80
2023-05-08T02:45:52.271Z,22.76
2023-05-08T02:46:53.282Z,22.79
2023-05-08T02:47:52.370Z,22.76
2023-05-08T02:48:52.411Z,22.75
2023-05-08T02:49:53.448Z,22.76
2023-05-08T02:50:53.499Z,22.78
2023-05-08T02:51:53.533Z,22.76
2023-05-08T02:52:52.588Z,22.75
2023-05-08T02:53:52.664Z,22.76
2023-05-08T02:54:53.729Z,22.75
2023-05-08T02:55:52.771Z,22.76
2023-05-08T02:56:53.812Z,22.75
2023-05-08T02:57:53.880Z,22.76
2023-05-08T02:58:53.919Z,22.73
2023-05-08T02:59:52.970Z,22.76
2023-05-08T03:00:54.008Z,22.75
2023-05-08T03:01:54.182Z,22.76
2023-05-08T03:02:54.188Z,22.78
2023-05-08T03:03:54.295Z,22.78
2023-05-08T03:04:54.243Z,22.76
2023-05-08T03:05:54.286Z,22.76
2023-05-08T03:06:53.351Z,22.73
2023-05-08T03:07:54.395Z,22.78
2023-05-08T03:08:54.463Z,22.76
2023-05-08T03:09:54.513Z,22.78
2023-05-08T03:10:54.558Z,22.76
2023-05-08T03:11:54.634Z,22.72
2023-05-08T03:12:54.713Z,22.76
2023-05-08T03:13:54.751Z,22.72
2023-05-08T03:14:53.793Z,22.75
2023-05-08T03:15:54.884Z,22.76
2023-05-08T03:16:54.916Z,22.73
2023-05-08T03:17:54.972Z,22.75
2023-05-08T03:18:55.038Z,22.75
2023-05-08T03:19:54.108Z,22.72
2023-05-08T03:20:55.126Z,22.72
2023-05-08T03:21:54.202Z,22.75
2023-05-08T03:22:55.255Z,22.75
2023-05-08T03:23:54.305Z,22.75
2023-05-08T03:24:55.348Z,22.72
2023-05-08T03:25:54.430Z,22.73
2023-05-08T03:26:54.468Z,22.75
2023-05-08T03:27:55.532Z,22.73
2023-05-08T03:28:55.575Z,22.75
2023-05-08T03:29:55.630Z,22.72
2023-05-08T03:30:55.703Z,22.75
2023-05-08T03:31:54.748Z,22.72
2023-05-08T03:32:55.864Z,22.73
2023-05-08T03:33:55.958Z,22.75
2023-05-08T03:34:54.923Z,22.73
2023-05-08T03:35:56.031Z,22.76
2023-05-08T03:36:55.031Z,22.75
2023-05-08T03:37:56.100Z,22.75
2023-05-08T03:38:56.161Z,22.75
2023-05-08T03:39:55.217Z,22.72
2023-05-08T03:40:56.263Z,22.76
2023-05-08T03:41:56.334Z,22.75
2023-05-08T03:42:56.382Z,22.76
2023-05-08T03:43:56.414Z,22.73
2023-05-08T03:44:55.467Z,22.76
2023-05-08T03:45:56.528Z,22.73
2023-05-08T03:46:56.780Z,22.76
2023-05-08T03:47:56.745Z,22.75
2023-05-08T03:48:55.734Z,22.72
2023-05-08T03:49:56.729Z,22.76
2023-05-08T03:50:56.778Z,22.76
2023-05-08T03:51:55.884Z,22.75
2023-05-08T03:52:55.903Z,22.72
2023-05-08T03:53:56.035Z,22.75
2023-05-08T03:54:57.035Z,22.76
2023-05-08T03:55:56.125Z,22.72
2023-05-08T03:56:56.157Z,22.73
2023-05-08T03:57:57.222Z,22.73
2023-05-08T03:58:57.333Z,22.73
2023-05-08T03:59:57.352Z,22.75
2023-05-08T04:00:57.433Z,22.73
2023-05-08T04:01:57.525Z,22.73
2023-05-08T04:02:57.648Z,22.75
2023-05-08T04:03:57.668Z,22.73
2023-05-08T04:04:56.662Z,22.75
2023-05-08T04:05:57.743Z,22.71
2023-05-08T04:06:56.810Z,22.72
2023-05-08T04:07:57.895Z,22.72
2023-05-08T04:08:57.982Z,22.72
2023-05-08T04:09:57.005Z,22.71
2023-05-08T04:10:58.050Z,22.73
2023-05-08T04:11:58.116Z,22.75
2023-05-08T04:12:57.458Z,22.75
2023-05-08T04:13:57.237Z,22.73
2023-05-08T04:14:58.361Z,22.75
2023-05-08T04:15:58.361Z,22.76
2023-05-08T04:16:58.539Z,22.72
2023-05-08T04:17:58.537Z,22.72
2023-05-08T04:18:57.587Z,22.72
2023-05-08T04:19:58.613Z,22.72
2023-05-08T04:20:57.693Z,22.68
2023-05-08T04:21:58.719Z,22.72
2023-05-08T04:22:58.807Z,22.71
2023-05-08T04:23:57.909Z,22.71
2023-05-08T04:24:57.918Z,22.69
2023-05-08T04:25:59.628Z,22.71
2023-05-08T04:26:59.040Z,22.75
2023-05-08T04:27:59.086Z,22.76
2023-05-08T04:28:59.155Z,22.72
2023-05-08T04:29:58.196Z,22.69
2023-05-08T04:30:59.288Z,22.68
2023-05-08T04:31:59.352Z,22.69
2023-05-08T04:32:58.413Z,22.68
2023-05-08T04:33:58.468Z,22.68
2023-05-08T04:34:59.517Z,22.66
2023-05-08T04:35:59.566Z,22.66
2023-05-08T04:36:58.635Z,22.69
2023-05-08T04:37:58.690Z,22.68
2023-05-08T04:38:59.278Z,22.68
2023-05-08T04:39:58.835Z,22.72
2023-05-08T04:40:59.888Z,22.72
2023-05-08T04:41:59.922Z,22.68
2023-05-08T04:42:58.966Z,22.71
2023-05-08T04:44:00.030Z,22.69
2023-05-08T04:45:00.179Z,22.69
2023-05-08T04:46:00.238Z,22.68
2023-05-08T04:47:00.219Z,22.69
2023-05-08T04:47:59.328Z,22.69
2023-05-08T04:48:59.360Z,22.72
2023-05-08T04:50:02.095Z,22.71
2023-05-08T04:50:59.449Z,22.68
2023-05-08T04:52:00.404Z,22.69
2023-05-08T04:52:59.419Z,22.72
2023-05-08T04:54:00.397Z,22.73
2023-05-08T04:54:59.411Z,22.68
2023-05-08T04:56:00.411Z,22.69
2023-05-08T04:56:59.373Z,22.66
2023-05-08T04:58:00.377Z,22.69
2023-05-08T04:58:59.351Z,22.68
2023-05-08T05:00:00.393Z,22.71
2023-05-08T05:01:00.334Z,22.66
2023-05-08T05:02:00.460Z,22.69
2023-05-08T05:03:00.380Z,22.69
2023-05-08T05:04:00.459Z,22.68
2023-05-08T05:05:00.352Z,22.72
2023-05-08T05:06:00.337Z,22.69
2023-05-08T05:07:00.292Z,22.66
2023-05-08T05:08:00.296Z,22.71
2023-05-08T05:08:59.330Z,22.66
2023-05-08T05:10:00.316Z,22.69
2023-05-08T05:11:00.363Z,22.68
2023-05-08T05:11:59.292Z,22.71
2023-05-08T05:12:59.316Z,22.68
2023-05-08T05:14:00.289Z,22.66
2023-05-08T05:15:00.503Z,22.68
2023-05-08T05:15:59.515Z,22.68
2023-05-08T05:17:00.694Z,22.68
2023-05-08T05:18:00.584Z,22.69
2023-05-08T05:19:00.611Z,22.68
2023-05-08T05:20:00.753Z,22.65
2023-05-08T05:20:59.715Z,22.66
2023-05-08T05:22:00.789Z,22.68
2023-05-08T05:23:00.867Z,22.68
2023-05-08T05:23:59.904Z,22.66
2023-05-08T05:24:59.964Z,22.69
2023-05-08T05:26:01.075Z,22.69
2023-05-08T05:27:01.093Z,22.68
2023-05-08T05:28:01.107Z,22.66
2023-05-08T05:29:00.215Z,22.69
2023-05-08T05:30:00.253Z,22.76
2023-05-08T05:31:01.347Z,22.83
2023-05-08T05:32:01.050Z,22.75
2023-05-08T05:33:02.054Z,22.75
2023-05-08T05:34:02.031Z,22.79
2023-05-08T05:35:01.703Z,22.79
2023-05-08T05:36:02.143Z,22.85
2023-05-08T05:37:01.080Z,22.89
2023-05-08T05:38:02.424Z,22.89
2023-05-08T05:39:01.573Z,22.98
2023-05-08T05:40:02.493Z,22.99
2023-05-08T05:41:01.553Z,22.98
2023-05-08T05:42:01.633Z,23.00
2023-05-08T05:43:01.118Z,22.99
2023-05-08T05:44:01.937Z,23.00
2023-05-08T05:45:02.745Z,23.10
2023-05-08T05:46:03.576Z,23.00
2023-05-08T05:47:02.530Z,23.12
2023-05-08T05:48:02.794Z,23.05
2023-05-08T05:49:01.358Z,23.23
2023-05-08T05:50:04.156Z,23.24
2023-05-08T05:51:02.497Z,23.29
2023-05-08T05:52:01.668Z,23.31
2023-05-08T05:53:02.503Z,23.40
2023-05-08T05:54:02.959Z,23.46
2023-05-08T05:55:02.676Z,23.50
2023-05-08T05:56:02.016Z,23.51
2023-05-08T05:57:01.296Z,23.60
2023-05-08T05:58:03.467Z,23.58
2023-05-08T05:59:01.930Z,23.71
2023-05-08T06:00:02.482Z,23.64
2023-05-08T06:01:03.213Z,23.64
2023-05-08T06:02:02.521Z,23.36
2023-05-08T06:03:02.062Z,23.09
2023-05-08T06:04:01.571Z,23.39
2023-05-08T06:05:02.801Z,23.46
2023-05-08T06:06:02.810Z,23.57
2023-05-08T06:07:02.391Z,23.61
2023-05-08T06:08:01.372Z,23.64
2023-05-08T06:09:01.549Z,23.65
2023-05-08T06:10:02.435Z,23.67
2023-05-08T06:11:02.912Z,23.79
2023-05-08T06:12:01.625Z,23.57
2023-05-08T06:13:01.672Z,23.62
2023-05-08T06:14:02.336Z,23.67
2023-05-08T06:15:01.322Z,23.67
2023-05-08T06:16:02.325Z,23.69
2023-05-08T06:17:01.336Z,23.67
2023-05-08T06:18:01.326Z,23.67
2023-05-08T06:19:02.357Z,23.65
2023-05-08T06:20:02.382Z,23.69
2023-05-08T06:21:01.334Z,23.65
2023-05-08T06:22:02.287Z,23.71
2023-05-08T06:23:02.289Z,23.68
2023-05-08T06:24:02.296Z,23.67
2023-05-08T06:25:02.353Z,23.71
2023-05-08T06:26:02.285Z,23.72
2023-05-08T06:27:01.293Z,23.72
2023-05-08T06:28:01.295Z,23.75
2023-05-08T06:29:02.326Z,23.75
2023-05-08T06:30:02.493Z,23.77
2023-05-08T06:31:01.417Z,23.77
2023-05-08T06:32:02.462Z,23.78
2023-05-08T06:33:02.375Z,23.77
2023-05-08T06:34:01.334Z,23.78
2023-05-08T06:35:02.408Z,23.77
2023-05-08T06:36:01.381Z,23.77
2023-05-08T06:37:01.388Z,23.78
2023-05-08T06:38:01.370Z,23.79
2023-05-08T06:39:01.380Z,23.79
2023-05-08T06:40:11.491Z,23.82
2023-05-08T06:41:02.436Z,23.79
2023-05-08T06:42:02.426Z,23.81
2023-05-08T06:43:01.419Z,23.81
2023-05-08T06:44:01.434Z,23.79
2023-05-08T06:45:01.529Z,23.82
2023-05-08T06:46:01.485Z,23.81
2023-05-08T06:47:01.426Z,23.84
2023-05-08T06:48:01.449Z,23.85
2023-05-08T06:49:01.409Z,23.82
2023-05-08T06:50:02.375Z,23.86
2023-05-08T06:51:02.418Z,23.72
2023-05-08T06:52:02.442Z,23.64
2023-05-08T06:53:02.191Z,23.50
2023-05-08T06:54:01.379Z,23.53
2023-05-08T06:55:02.424Z,23.39
2023-05-08T06:56:01.775Z,23.68
2023-05-08T06:57:01.419Z,23.60
2023-05-08T06:58:01.338Z,23.60
2023-05-08T06:59:08.579Z,23.67
2023-05-08T07:00:02.304Z,23.75
2023-05-08T07:01:02.394Z,23.79
2023-05-08T07:02:01.421Z,23.89
2023-05-08T07:03:02.662Z,23.86
2023-05-08T07:04:02.315Z,23.94
2023-05-08T07:05:02.453Z,23.98
2023-05-08T07:06:01.344Z,23.95
2023-05-08T07:07:01.331Z,24.02
2023-05-08T07:08:01.295Z,24.04
2023-05-08T07:09:03.295Z,24.06
2023-05-08T07:10:01.308Z,24.12
2023-05-08T07:11:01.295Z,24.12
2023-05-08T07:12:01.315Z,24.13
2023-05-08T07:13:01.298Z,24.15
2023-05-08T07:14:01.225Z,24.17
2023-05-08T07:15:10.693Z,24.17
2023-05-08T07:16:02.241Z,24.19
2023-05-08T07:17:01.213Z,24.17
2023-05-08T07:18:01.240Z,24.17
2023-05-08T07:19:02.279Z,24.16
2023-05-08T07:20:01.181Z,24.19
2023-05-08T07:21:02.325Z,24.15
2023-05-08T07:22:01.392Z,24.17
2023-05-08T07:23:02.141Z,24.17
2023-05-08T07:24:01.142Z,24.19
2023-05-08T07:25:02.177Z,24.16
2023-05-08T07:26:01.137Z,24.16
2023-05-08T07:27:01.165Z,24.19
2023-05-08T07:28:02.149Z,24.17
2023-05-08T07:29:01.106Z,24.20
2023-05-08T07:30:01.109Z,24.20
2023-05-08T07:31:01.162Z,24.20
2023-05-08T07:32:01.258Z,24.23
2023-05-08T07:33:01.169Z,24.22
2023-05-08T07:34:01.071Z,24.23
2023-05-08T07:35:10.292Z,24.23
2023-05-08T07:36:02.088Z,24.19
2023-05-08T07:37:01.109Z,24.27
2023-05-08T07:38:01.067Z,24.26
2023-05-08T07:39:02.052Z,24.27
2023-05-08T07:40:02.035Z,24.26
2023-05-08T07:41:01.083Z,24.30
2023-05-08T07:42:02.005Z,24.26
2023-05-08T07:43:02.005Z,24.29
2023-05-08T07:44:01.998Z,24.29
2023-05-08T07:45:01.090Z,24.37
2023-05-08T07:46:01.070Z,24.47
2023-05-08T07:47:01.130Z,24.39
2023-05-08T07:48:01.017Z,24.47
2023-05-08T07:49:00.968Z,24.43
2023-05-08T07:50:01.988Z,24.49
2023-05-08T07:51:02.315Z,24.53
2023-05-08T07:52:00.920Z,24.54
2023-05-08T07:53:01.964Z,24.57
2023-05-08T07:54:00.932Z,24.53
2023-05-08T07:55:00.985Z,24.52
2023-05-08T07:56:00.910Z,24.53
2023-05-08T07:57:01.928Z,24.60
2023-05-08T07:58:01.894Z,24.59
2023-05-08T07:59:00.895Z,24.60
2023-05-08T08:00:00.877Z,24.71
2023-05-08T08:01:01.947Z,24.66
2023-05-08T08:02:01.968Z,24.64
2023-05-08T08:03:01.981Z,24.68
2023-05-08T08:04:01.045Z,24.70
2023-05-08T08:05:00.855Z,24.70
2023-05-08T08:06:01.869Z,24.70
2023-05-08T08:07:01.879Z,24.74
2023-05-08T08:08:00.866Z,24.77
2023-05-08T08:09:01.859Z,24.75
2023-05-08T08:10:00.876Z,24.72
2023-05-08T08:11:02.948Z,24.75
2023-05-08T08:12:01.860Z,24.77
2023-05-08T08:13:01.935Z,24.78
2023-05-08T08:14:01.876Z,24.82
2023-05-08T08:15:02.752Z,24.81
2023-05-08T08:16:00.790Z,24.78
2023-05-08T08:17:00.818Z,24.81
2023-05-08T08:18:00.895Z,24.80
2023-05-08T08:19:01.771Z,24.82
2023-05-08T08:20:01.790Z,24.87
2023-05-08T08:21:00.836Z,24.87
2023-05-08T08:22:00.800Z,24.85
2023-05-08T08:23:00.942Z,24.90
2023-05-08T08:24:00.842Z,24.88
2023-05-08T08:25:00.788Z,24.90
2023-05-08T08:26:00.733Z,24.92
2023-05-08T08:27:01.700Z,24.92
2023-05-08T08:28:00.728Z,24.97
2023-05-08T08:29:00.724Z,24.94
2023-05-08T08:30:12.900Z,24.94
2023-05-08T08:31:01.788Z,24.94
2023-05-08T08:32:00.714Z,24.98
2023-05-08T08:33:01.739Z,24.97
2023-05-08T08:34:01.696Z,24.94
2023-05-08T08:35:00.751Z,24.95
2023-05-08T08:36:00.667Z,24.92
2023-05-08T08:37:00.668Z,24.92
2023-05-08T08:38:00.709Z,24.97
2023-05-08T08:39:01.779Z,24.92
2023-05-08T08:40:01.702Z,24.97
2023-05-08T08:41:00.651Z,25.01
2023-05-08T08:42:01.611Z,24.88
2023-05-08T08:43:00.655Z,24.75
2023-05-08T08:44:01.589Z,24.84
2023-05-08T08:45:00.589Z,24.84
2023-05-08T08:46:01.630Z,24.85
2023-05-08T08:47:01.580Z,24.82
2023-05-08T08:48:01.629Z,24.88
2023-05-08T08:49:00.579Z,24.99
2023-05-08T08:50:00.601Z,25.02
2023-05-08T08:51:00.657Z,25.22
2023-05-08T08:52:00.525Z,25.12
2023-05-08T08:53:01.530Z,25.15
2023-05-08T08:54:00.523Z,24.99
2023-05-08T08:55:00.706Z,24.94
2023-05-08T08:56:00.557Z,24.92
2023-05-08T08:57:00.561Z,24.90
2023-05-08T08:58:01.493Z,24.95
2023-05-08T08:59:01.490Z,24.94
2023-05-08T09:00:00.487Z,25.12
2023-05-08T09:01:01.788Z,24.99
2023-05-08T09:02:00.558Z,25.12
2023-05-08T09:03:00.585Z,25.12
2023-05-08T09:04:00.581Z,25.15
2023-05-08T09:05:00.431Z,25.05
2023-05-08T09:06:01.457Z,25.08
2023-05-08T09:07:00.478Z,25.14
2023-05-08T09:08:01.501Z,25.12
2023-05-08T09:09:00.539Z,25.14
2023-05-08T09:10:00.617Z,25.22
2023-05-08T09:11:01.798Z,25.26
2023-05-08T09:12:00.735Z,25.26
2023-05-08T09:13:01.818Z,25.28
2023-05-08T09:14:01.853Z,25.30
2023-05-08T09:15:01.965Z,25.30
2023-05-08T09:16:02.110Z,25.29
2023-05-08T09:17:02.028Z,25.32
2023-05-08T09:18:02.104Z,25.30
2023-05-08T09:19:03.334Z,25.29
2023-05-08T09:20:01.096Z,25.32
2023-05-08T09:21:02.122Z,25.33
2023-05-08T09:22:01.131Z,25.28
2023-05-08T09:23:02.086Z,25.36
2023-05-08T09:24:02.101Z,25.39
2023-05-08T09:25:02.074Z,25.39
2023-05-08T09:26:02.217Z,25.47
2023-05-08T09:27:02.222Z,25.45
2023-05-08T09:28:02.089Z,25.49
2023-05-08T09:29:01.059Z,25.49
2023-05-08T09:30:02.085Z,25.52
2023-05-08T09:31:02.040Z,25.46
2023-05-08T09:32:02.072Z,25.53
2023-05-08T09:33:02.147Z,25.56
2023-05-08T09:34:01.010Z,25.52
2023-05-08T09:35:02.082Z,25.54
2023-05-08T09:36:01.031Z,25.57
2023-05-08T09:37:02.002Z,25.57
2023-05-08T09:38:01.042Z,25.57
2023-05-08T09:39:03.014Z,25.56
2023-05-08T09:40:01.009Z,25.57
2023-05-08T09:41:00.982Z,25.56
2023-05-08T09:42:02.004Z,25.59
2023-05-08T09:43:02.101Z,25.59
2023-05-08T09:44:02.004Z,25.56
2023-05-08T09:45:01.956Z,25.60
2023-05-08T09:46:02.043Z,25.66
2023-05-08T09:47:00.948Z,25.59
2023-05-08T09:48:01.048Z,25.59
2023-05-08T09:49:02.048Z,25.69
2023-05-08T09:50:02.046Z,25.72
2023-05-08T09:51:02.083Z,25.69
2023-05-08T09:52:02.310Z,25.69
2023-05-08T09:53:01.139Z,25.46
2023-05-08T09:54:01.191Z,25.59
2023-05-08T09:55:02.237Z,25.60
2023-05-08T09:56:02.263Z,25.57
2023-05-08T09:57:01.410Z,25.57
2023-05-08T09:58:01.375Z,25.70
2023-05-08T09:59:01.506Z,25.67
2023-05-08T10:00:02.445Z,25.62
2023-05-08T10:01:02.545Z,25.62
2023-05-08T10:02:02.521Z,25.59
2023-05-08T10:03:01.561Z,25.65
2023-05-08T10:04:01.616Z,25.56
2023-05-08T10:05:02.673Z,25.56
2023-05-08T10:06:02.682Z,25.59
2023-05-08T10:07:01.652Z,25.47
2023-05-08T10:08:02.679Z,25.30
2023-05-08T10:09:01.725Z,25.21
2023-05-08T10:10:02.805Z,25.28
2023-05-08T10:11:01.834Z,25.29
2023-05-08T10:12:02.895Z,25.25
2023-05-08T10:13:01.959Z,24.92
2023-05-08T10:14:02.002Z,24.95
2023-05-08T10:15:02.300Z,25.05
2023-05-08T10:16:03.088Z,25.09
2023-05-08T10:17:02.187Z,24.92
2023-05-08T10:18:03.315Z,24.97
2023-05-08T10:19:02.263Z,24.99
2023-05-08T10:20:03.299Z,24.97
2023-05-08T10:21:03.337Z,25.02
2023-05-08T10:22:03.373Z,24.95
2023-05-08T10:23:02.451Z,24.97
2023-05-08T10:24:02.459Z,25.02
2023-05-08T10:25:03.708Z,25.04
2023-05-08T10:26:03.533Z,25.09
2023-05-08T10:27:07.308Z,25.07
2023-05-08T10:28:03.614Z,25.07
2023-05-08T10:29:02.578Z,25.01
2023-05-08T10:30:02.554Z,25.02
2023-05-08T10:31:02.767Z,24.97
2023-05-08T10:32:03.541Z,25.04
2023-05-08T10:33:02.606Z,25.05
2023-05-08T10:34:02.538Z,25.04
2023-05-08T10:35:03.536Z,24.99
2023-05-08T10:36:03.547Z,25.04
2023-05-08T10:37:03.532Z,24.95
2023-05-08T10:38:02.628Z,24.92
2023-05-08T10:39:03.595Z,25.01
2023-05-08T10:40:02.556Z,25.01
2023-05-08T10:41:02.479Z,25.15
2023-05-08T10:42:03.805Z,25.19
2023-05-08T10:43:03.556Z,25.15
2023-05-08T10:44:03.432Z,25.14
2023-05-08T10:45:02.477Z,25.08
2023-05-08T10:46:03.511Z,25.11
2023-05-08T10:47:02.898Z,25.09
2023-05-08T10:48:02.565Z,25.12
2023-05-08T10:49:02.552Z,25.02
2023-05-08T10:50:02.448Z,24.98
2023-05-08T10:51:03.429Z,24.98
2023-05-08T10:52:02.461Z,24.95
2023-05-08T10:53:02.471Z,25.08
2023-05-08T10:54:02.413Z,25.07
2023-05-08T10:55:02.449Z,24.98
2023-05-08T10:56:02.422Z,25.01
2023-05-08T10:57:02.557Z,24.95
2023-05-08T10:58:02.443Z,24.94
2023-05-08T10:59:02.462Z,24.92
2023-05-08T11:00:02.430Z,24.90
2023-05-08T11:01:04.318Z,24.98
2023-05-08T11:02:02.392Z,24.88
2023-05-08T11:03:02.525Z,24.90
2023-05-08T11:04:02.425Z,24.94
2023-05-08T11:05:03.401Z,24.91
2023-05-08T11:06:02.346Z,24.88
2023-05-08T11:07:03.442Z,24.90
2023-05-08T11:08:02.305Z,24.90
2023-05-08T11:09:03.320Z,24.90
2023-05-08T11:10:03.325Z,24.94
2023-05-08T11:11:02.290Z,24.92
2023-05-08T11:12:03.390Z,24.92
2023-05-08T11:13:02.453Z,24.91
2023-05-08T11:14:02.278Z,24.97
2023-05-08T11:15:02.308Z,24.90
2023-05-08T11:16:02.331Z,24.88
2023-05-08T11:17:02.311Z,24.88
2023-05-08T11:18:03.371Z,24.88
2023-05-08T11:19:02.339Z,24.91
2023-05-08T11:20:02.243Z,24.87
2023-05-08T11:21:02.289Z,24.87
2023-05-08T11:22:03.287Z,24.87
2023-05-08T11:23:03.284Z,24.88
2023-05-08T11:24:03.204Z,24.88
2023-05-08T11:25:02.242Z,24.88
2023-05-08T11:26:02.231Z,24.88
2023-05-08T11:27:03.196Z,24.90
2023-05-08T11:28:03.245Z,24.92
2023-05-08T11:29:02.192Z,24.85
2023-05-08T11:30:03.244Z,24.88
2023-05-08T11:31:03.244Z,24.90
2023-05-08T11:32:02.211Z,24.88
2023-05-08T11:33:02.227Z,24.85
2023-05-08T11:34:03.188Z,24.85
2023-05-08T11:35:03.222Z,24.88
2023-05-08T11:36:02.173Z,24.88
2023-05-08T11:37:03.211Z,24.88
2023-05-08T11:38:02.196Z,24.87
2023-05-08T11:39:03.141Z,24.87
2023-05-08T11:40:02.157Z,24.88
2023-05-08T11:41:02.113Z,24.88
2023-05-08T11:42:03.139Z,24.88
2023-05-08T11:43:02.186Z,24.85
2023-05-08T11:44:02.119Z,24.85
2023-05-08T11:45:03.391Z,24.82
2023-05-08T11:46:02.112Z,24.84
2023-05-08T11:47:02.167Z,24.87
2023-05-08T11:48:03.127Z,24.90
2023-05-08T11:49:02.086Z,24.85
2023-05-08T11:50:02.103Z,24.84
2023-05-08T11:51:02.065Z,24.84
2023-05-08T11:52:03.014Z,24.82
2023-05-08T11:53:02.128Z,24.85
2023-05-08T11:54:02.052Z,24.85
2023-05-08T11:55:02.985Z,24.84
2023-05-08T11:56:02.998Z,24.82
2023-05-08T11:57:03.010Z,24.84
2023-05-08T11:58:03.078Z,24.87
2023-05-08T11:59:01.977Z,24.84
2023-05-08T12:00:02.968Z,24.85
2023-05-08T12:01:03.007Z,24.85
2023-05-08T12:02:08.345Z,24.85
2023-05-08T12:03:03.254Z,24.84
2023-05-08T12:04:02.197Z,24.82
2023-05-08T12:05:02.960Z,24.82
2023-05-08T12:06:02.957Z,24.84
2023-05-08T12:07:02.985Z,24.87
2023-05-08T12:08:01.897Z,24.82
2023-05-08T12:09:03.002Z,24.82
2023-05-08T12:10:01.943Z,24.81
2023-05-08T12:11:01.931Z,24.80
2023-05-08T12:12:02.863Z,24.81
2023-05-08T12:13:02.939Z,24.82
2023-05-08T12:14:02.871Z,24.82
2023-05-08T12:15:01.869Z,24.78
2023-05-08T12:16:01.911Z,24.81
2023-05-08T12:17:01.864Z,24.80
2023-05-08T12:18:02.953Z,24.80
2023-05-08T12:19:01.868Z,24.84
2023-05-08T12:20:01.856Z,24.82
2023-05-08T12:21:01.865Z,24.77
2023-05-08T12:22:02.790Z,24.85
2023-05-08T12:23:02.821Z,24.81
2023-05-08T12:24:01.880Z,24.81
2023-05-08T12:25:02.912Z,24.81
2023-05-08T12:26:01.773Z,24.81
2023-05-08T12:27:01.846Z,24.85
2023-05-08T12:28:01.766Z,24.84
2023-05-08T12:29:01.748Z,24.82
2023-05-08T12:30:02.843Z,24.82
2023-05-08T12:31:01.848Z,24.80
2023-05-08T12:32:01.818Z,24.80
2023-05-08T12:33:01.857Z,24.82
2023-05-08T12:34:01.713Z,24.80
2023-05-08T12:35:01.802Z,24.78
2023-05-08T12:36:01.740Z,24.78
2023-05-08T12:37:02.803Z,24.80
2023-05-08T12:38:01.840Z,24.78
2023-05-08T12:39:02.869Z,24.77
2023-05-08T12:40:01.858Z,24.82
2023-05-08T12:41:01.774Z,24.78
2023-05-08T12:42:02.776Z,24.82
2023-05-08T12:43:02.790Z,24.78
2023-05-08T12:44:01.770Z,24.78
2023-05-08T12:45:01.774Z,24.81
2023-05-08T12:46:02.788Z,24.61
2023-05-08T12:47:02.870Z,24.40
2023-05-08T12:48:02.837Z,24.23
2023-05-08T12:49:02.825Z,23.86
2023-05-08T12:50:02.857Z,23.31
2023-05-08T12:51:02.907Z,23.30
2023-05-08T12:52:02.900Z,23.53
2023-05-08T12:53:02.942Z,23.62